sensor_id;sensor_type;location;lat;lon;timestamp;P1;durP1;ratioP1;P2;durP2;ratioP2
78402;SDS011;67687;43.508;1.504;2023-12-20T00:00:34;16.83;;;9.90;;
78402;SDS011;67687;43.508;1.504;2023-12-20T00:03:01;16.08;;;9.38;;
78402;SDS011;67687;43.508;1.504;2023-12-20T00:05:27;15.88;;;9.63;;
78402;SDS011;67687;43.508;1.504;2023-12-20T00:07:54;15.40;;;9.67;;
78402;SDS011;67687;43.508;1.504;2023-12-20T00:10:20;17.17;;;9.32;;
78402;SDS011;67687;43.508;1.504;2023-12-20T00:12:46;17.17;;;9.68;;
78402;SDS011;67687;43.508;1.504;2023-12-20T00:15:14;13.75;;;9.00;;
78402;SDS011;67687;43.508;1.504;2023-12-20T00:17:41;17.88;;;9.52;;
78402;SDS011;67687;43.508;1.504;2023-12-20T00:20:08;16.17;;;9.63;;
78402;SDS011;67687;43.508;1.504;2023-12-20T00:22:34;17.52;;;9.65;;
78402;SDS011;67687;43.508;1.504;2023-12-20T00:25:01;14.75;;;9.38;;
78402;SDS011;67687;43.508;1.504;2023-12-20T00:27:27;14.98;;;8.63;;
78402;SDS011;67687;43.508;1.504;2023-12-20T00:29:55;16.33;;;9.52;;
78402;SDS011;67687;43.508;1.504;2023-12-20T00:32:22;14.67;;;9.93;;
78402;SDS011;67687;43.508;1.504;2023-12-20T00:34:49;16.50;;;9.00;;
78402;SDS011;67687;43.508;1.504;2023-12-20T00:37:15;15.93;;;10.13;;
78402;SDS011;67687;43.508;1.504;2023-12-20T00:39:42;16.23;;;9.18;;
78402;SDS011;67687;43.508;1.504;2023-12-20T00:42:09;15.15;;;8.88;;
78402;SDS011;67687;43.508;1.504;2023-12-20T00:44:35;15.53;;;9.17;;
78402;SDS011;67687;43.508;1.504;2023-12-20T00:47:02;15.50;;;9.15;;
78402;SDS011;67687;43.508;1.504;2023-12-20T00:49:30;14.27;;;8.98;;
78402;SDS011;67687;43.508;1.504;2023-12-20T00:51:56;15.43;;;8.88;;
78402;SDS011;67687;43.508;1.504;2023-12-20T00:54:23;14.52;;;8.55;;
78402;SDS011;67687;43.508;1.504;2023-12-20T00:56:49;16.23;;;9.17;;
78402;SDS011;67687;43.508;1.504;2023-12-20T00:59:16;14.63;;;9.35;;
78402;SDS011;67687;43.508;1.504;2023-12-20T01:01:42;15.50;;;9.48;;
78402;SDS011;67687;43.508;1.504;2023-12-20T01:04:09;17.58;;;10.07;;
78402;SDS011;67687;43.508;1.504;2023-12-20T01:06:37;13.43;;;8.93;;
78402;SDS011;67687;43.508;1.504;2023-12-20T01:09:03;16.10;;;9.50;;
78402;SDS011;67687;43.508;1.504;2023-12-20T01:11:30;13.73;;;9.05;;
78402;SDS011;67687;43.508;1.504;2023-12-20T01:13:56;14.38;;;9.02;;
78402;SDS011;67687;43.508;1.504;2023-12-20T01:16:23;12.98;;;8.55;;
78402;SDS011;67687;43.508;1.504;2023-12-20T01:18:49;13.90;;;8.98;;
78402;SDS011;67687;43.508;1.504;2023-12-20T01:21:16;12.70;;;8.33;;
78402;SDS011;67687;43.508;1.504;2023-12-20T01:23:44;14.60;;;8.50;;
78402;SDS011;67687;43.508;1.504;2023-12-20T01:26:10;14.25;;;8.27;;
78402;SDS011;67687;43.508;1.504;2023-12-20T01:28:37;13.10;;;8.20;;
78402;SDS011;67687;43.508;1.504;2023-12-20T01:31:03;13.75;;;8.68;;
78402;SDS011;67687;43.508;1.504;2023-12-20T01:33:30;13.73;;;7.70;;
78402;SDS011;67687;43.508;1.504;2023-12-20T01:35:56;13.23;;;7.95;;
78402;SDS011;67687;43.508;1.504;2023-12-20T01:38:23;12.35;;;7.53;;
78402;SDS011;67687;43.508;1.504;2023-12-20T01:40:51;13.60;;;8.10;;
78402;SDS011;67687;43.508;1.504;2023-12-20T01:43:17;13.70;;;8.25;;
78402;SDS011;67687;43.508;1.504;2023-12-20T01:45:44;12.57;;;7.67;;
78402;SDS011;67687;43.508;1.504;2023-12-20T01:48:11;12.80;;;7.95;;
78402;SDS011;67687;43.508;1.504;2023-12-20T01:50:38;12.13;;;7.18;;
78402;SDS011;67687;43.508;1.504;2023-12-20T01:53:05;12.40;;;7.75;;
78402;SDS011;67687;43.508;1.504;2023-12-20T01:55:33;14.57;;;7.82;;
78402;SDS011;67687;43.508;1.504;2023-12-20T01:58:02;12.87;;;7.80;;
78402;SDS011;67687;43.508;1.504;2023-12-20T02:00:29;13.50;;;8.38;;
78402;SDS011;67687;43.508;1.504;2023-12-20T02:02:56;13.15;;;7.43;;
78402;SDS011;67687;43.508;1.504;2023-12-20T02:05:25;11.98;;;7.28;;
78402;SDS011;67687;43.508;1.504;2023-12-20T02:07:53;11.02;;;7.43;;
78402;SDS011;67687;43.508;1.504;2023-12-20T02:10:19;12.47;;;8.00;;
78402;SDS011;67687;43.508;1.504;2023-12-20T02:12:46;12.38;;;7.75;;
78402;SDS011;67687;43.508;1.504;2023-12-20T02:15:14;11.13;;;7.07;;
78402;SDS011;67687;43.508;1.504;2023-12-20T02:17:40;12.18;;;7.38;;
78402;SDS011;67687;43.508;1.504;2023-12-20T02:20:06;12.30;;;7.78;;
78402;SDS011;67687;43.508;1.504;2023-12-20T02:22:34;10.60;;;7.23;;
78402;SDS011;67687;43.508;1.504;2023-12-20T02:25:01;10.70;;;6.97;;
78402;SDS011;67687;43.508;1.504;2023-12-20T02:27:28;11.48;;;6.30;;
78402;SDS011;67687;43.508;1.504;2023-12-20T02:29:55;12.43;;;6.90;;
78402;SDS011;67687;43.508;1.504;2023-12-20T02:32:21;10.63;;;6.80;;
78402;SDS011;67687;43.508;1.504;2023-12-20T02:34:51;10.90;;;7.03;;
78402;SDS011;67687;43.508;1.504;2023-12-20T02:37:17;10.88;;;7.03;;
78402;SDS011;67687;43.508;1.504;2023-12-20T02:39:45;10.80;;;7.38;;
78402;SDS011;67687;43.508;1.504;2023-12-20T02:42:12;10.20;;;7.18;;
78402;SDS011;67687;43.508;1.504;2023-12-20T02:44:38;10.85;;;7.15;;
78402;SDS011;67687;43.508;1.504;2023-12-20T02:47:05;10.57;;;7.07;;
78402;SDS011;67687;43.508;1.504;2023-12-20T02:49:31;11.38;;;7.20;;
78402;SDS011;67687;43.508;1.504;2023-12-20T02:51:58;11.07;;;6.97;;
78402;SDS011;67687;43.508;1.504;2023-12-20T02:54:24;12.65;;;7.25;;
78402;SDS011;67687;43.508;1.504;2023-12-20T02:56:52;10.68;;;6.88;;
78402;SDS011;67687;43.508;1.504;2023-12-20T02:59:18;10.97;;;6.87;;
78402;SDS011;67687;43.508;1.504;2023-12-20T03:01:45;11.75;;;7.32;;
78402;SDS011;67687;43.508;1.504;2023-12-20T03:04:12;10.18;;;6.93;;
78402;SDS011;67687;43.508;1.504;2023-12-20T03:06:38;11.57;;;7.15;;
78402;SDS011;67687;43.508;1.504;2023-12-20T03:09:05;10.93;;;7.28;;
78402;SDS011;67687;43.508;1.504;2023-12-20T03:11:32;11.23;;;6.50;;
78402;SDS011;67687;43.508;1.504;2023-12-20T03:14:00;12.68;;;6.82;;
78402;SDS011;67687;43.508;1.504;2023-12-20T03:16:26;11.45;;;7.85;;
78402;SDS011;67687;43.508;1.504;2023-12-20T03:18:53;11.57;;;7.18;;
78402;SDS011;67687;43.508;1.504;2023-12-20T03:21:19;12.63;;;7.63;;
78402;SDS011;67687;43.508;1.504;2023-12-20T03:23:46;12.97;;;8.13;;
78402;SDS011;67687;43.508;1.504;2023-12-20T03:26:12;12.73;;;7.93;;
78402;SDS011;67687;43.508;1.504;2023-12-20T03:28:39;11.90;;;7.47;;
78402;SDS011;67687;43.508;1.504;2023-12-20T03:31:07;12.93;;;7.40;;
78402;SDS011;67687;43.508;1.504;2023-12-20T03:33:35;11.57;;;7.72;;
78402;SDS011;67687;43.508;1.504;2023-12-20T03:36:02;12.73;;;8.03;;
78402;SDS011;67687;43.508;1.504;2023-12-20T03:38:28;12.15;;;8.25;;
78402;SDS011;67687;43.508;1.504;2023-12-20T03:40:55;11.93;;;7.85;;
78402;SDS011;67687;43.508;1.504;2023-12-20T03:43:21;13.90;;;8.48;;
78402;SDS011;67687;43.508;1.504;2023-12-20T03:45:48;13.90;;;8.48;;
78402;SDS011;67687;43.508;1.504;2023-12-20T03:48:16;20.87;;;8.83;;
78402;SDS011;67687;43.508;1.504;2023-12-20T03:50:43;15.73;;;9.35;;
78402;SDS011;67687;43.508;1.504;2023-12-20T03:53:09;15.55;;;9.80;;
78402;SDS011;67687;43.508;1.504;2023-12-20T03:55:36;17.48;;;9.80;;
78402;SDS011;67687;43.508;1.504;2023-12-20T03:58:02;17.33;;;10.20;;
78402;SDS011;67687;43.508;1.504;2023-12-20T04:00:29;16.30;;;9.97;;
78402;SDS011;67687;43.508;1.504;2023-12-20T04:02:57;16.13;;;10.02;;
78402;SDS011;67687;43.508;1.504;2023-12-20T04:05:24;20.00;;;10.68;;
78402;SDS011;67687;43.508;1.504;2023-12-20T04:07:51;20.48;;;10.52;;
78402;SDS011;67687;43.508;1.504;2023-12-20T04:10:17;18.23;;;10.75;;
78402;SDS011;67687;43.508;1.504;2023-12-20T04:12:44;18.90;;;10.20;;
78402;SDS011;67687;43.508;1.504;2023-12-20T04:15:10;18.67;;;11.35;;
78402;SDS011;67687;43.508;1.504;2023-12-20T04:17:37;20.33;;;10.88;;
78402;SDS011;67687;43.508;1.504;2023-12-20T04:20:04;20.50;;;11.52;;
78402;SDS011;67687;43.508;1.504;2023-12-20T04:22:32;20.35;;;11.07;;
78402;SDS011;67687;43.508;1.504;2023-12-20T04:24:59;19.83;;;10.80;;
78402;SDS011;67687;43.508;1.504;2023-12-20T04:27:25;19.85;;;11.30;;
78402;SDS011;67687;43.508;1.504;2023-12-20T04:29:51;20.52;;;10.55;;
78402;SDS011;67687;43.508;1.504;2023-12-20T04:32:18;21.17;;;11.55;;
78402;SDS011;67687;43.508;1.504;2023-12-20T04:34:44;18.52;;;10.30;;
78402;SDS011;67687;43.508;1.504;2023-12-20T04:37:11;19.23;;;11.07;;
78402;SDS011;67687;43.508;1.504;2023-12-20T04:39:39;19.58;;;11.98;;
78402;SDS011;67687;43.508;1.504;2023-12-20T04:42:06;20.23;;;11.05;;
78402;SDS011;67687;43.508;1.504;2023-12-20T04:44:32;17.10;;;9.73;;
78402;SDS011;67687;43.508;1.504;2023-12-20T04:46:59;18.15;;;10.80;;
78402;SDS011;67687;43.508;1.504;2023-12-20T04:49:26;19.13;;;10.43;;
78402;SDS011;67687;43.508;1.504;2023-12-20T04:51:52;19.27;;;10.55;;
78402;SDS011;67687;43.508;1.504;2023-12-20T04:54:20;17.83;;;9.48;;
78402;SDS011;67687;43.508;1.504;2023-12-20T04:56:49;17.45;;;10.00;;
78402;SDS011;67687;43.508;1.504;2023-12-20T04:59:15;17.70;;;9.95;;
78402;SDS011;67687;43.508;1.504;2023-12-20T05:01:42;16.77;;;8.97;;
78402;SDS011;67687;43.508;1.504;2023-12-20T05:04:08;15.30;;;9.73;;
78402;SDS011;67687;43.508;1.504;2023-12-20T05:06:35;15.15;;;9.00;;
78402;SDS011;67687;43.508;1.504;2023-12-20T05:09:01;16.90;;;9.55;;
78402;SDS011;67687;43.508;1.504;2023-12-20T05:11:28;15.35;;;8.75;;
78402;SDS011;67687;43.508;1.504;2023-12-20T05:13:56;16.40;;;8.13;;
78402;SDS011;67687;43.508;1.504;2023-12-20T05:16:22;14.93;;;8.00;;
78402;SDS011;67687;43.508;1.504;2023-12-20T05:18:49;15.60;;;8.88;;
78402;SDS011;67687;43.508;1.504;2023-12-20T05:21:17;14.73;;;8.45;;
78402;SDS011;67687;43.508;1.504;2023-12-20T05:23:44;14.90;;;8.95;;
78402;SDS011;67687;43.508;1.504;2023-12-20T05:26:10;16.07;;;8.03;;
78402;SDS011;67687;43.508;1.504;2023-12-20T05:28:37;13.60;;;7.57;;
78402;SDS011;67687;43.508;1.504;2023-12-20T05:31:05;13.77;;;8.82;;
78402;SDS011;67687;43.508;1.504;2023-12-20T05:33:31;15.57;;;8.23;;
78402;SDS011;67687;43.508;1.504;2023-12-20T05:35:58;14.27;;;7.82;;
78402;SDS011;67687;43.508;1.504;2023-12-20T05:38:25;13.70;;;7.60;;
78402;SDS011;67687;43.508;1.504;2023-12-20T05:40:51;14.82;;;7.25;;
78402;SDS011;67687;43.508;1.504;2023-12-20T05:43:18;13.30;;;6.60;;
78402;SDS011;67687;43.508;1.504;2023-12-20T05:45:44;11.35;;;6.50;;
78402;SDS011;67687;43.508;1.504;2023-12-20T05:48:12;11.98;;;6.68;;
78402;SDS011;67687;43.508;1.504;2023-12-20T05:50:39;11.37;;;5.90;;
78402;SDS011;67687;43.508;1.504;2023-12-20T05:53:06;12.85;;;6.10;;
78402;SDS011;67687;43.508;1.504;2023-12-20T05:55:33;11.68;;;5.90;;
78402;SDS011;67687;43.508;1.504;2023-12-20T05:57:59;11.60;;;6.10;;
78402;SDS011;67687;43.508;1.504;2023-12-20T06:00:26;10.93;;;6.28;;
78402;SDS011;67687;43.508;1.504;2023-12-20T06:02:52;11.97;;;8.03;;
78402;SDS011;67687;43.508;1.504;2023-12-20T06:05:20;12.05;;;5.22;;
78402;SDS011;67687;43.508;1.504;2023-12-20T06:07:47;9.73;;;4.82;;
78402;SDS011;67687;43.508;1.504;2023-12-20T06:10:15;8.52;;;4.80;;
78402;SDS011;67687;43.508;1.504;2023-12-20T06:12:41;11.75;;;6.30;;
78402;SDS011;67687;43.508;1.504;2023-12-20T06:15:08;10.30;;;6.10;;
78402;SDS011;67687;43.508;1.504;2023-12-20T06:17:34;24.67;;;13.10;;
78402;SDS011;67687;43.508;1.504;2023-12-20T06:20:01;8.98;;;4.45;;
78402;SDS011;67687;43.508;1.504;2023-12-20T06:22:34;8.32;;;4.10;;
78402;SDS011;67687;43.508;1.504;2023-12-20T06:25:00;7.72;;;4.03;;
78402;SDS011;67687;43.508;1.504;2023-12-20T06:27:26;8.30;;;4.30;;
78402;SDS011;67687;43.508;1.504;2023-12-20T06:29:53;8.10;;;4.28;;
78402;SDS011;67687;43.508;1.504;2023-12-20T06:32:20;6.97;;;3.97;;
78402;SDS011;67687;43.508;1.504;2023-12-20T06:34:48;6.50;;;3.60;;
78402;SDS011;67687;43.508;1.504;2023-12-20T06:37:14;6.30;;;3.60;;
78402;SDS011;67687;43.508;1.504;2023-12-20T06:39:42;6.53;;;3.80;;
78402;SDS011;67687;43.508;1.504;2023-12-20T06:42:09;6.13;;;3.47;;
78402;SDS011;67687;43.508;1.504;2023-12-20T06:44:35;6.20;;;3.20;;
78402;SDS011;67687;43.508;1.504;2023-12-20T06:47:02;5.55;;;3.20;;
78402;SDS011;67687;43.508;1.504;2023-12-20T06:49:29;6.30;;;3.00;;
78402;SDS011;67687;43.508;1.504;2023-12-20T06:51:55;6.53;;;3.30;;
78402;SDS011;67687;43.508;1.504;2023-12-20T06:54:22;6.03;;;3.22;;
78402;SDS011;67687;43.508;1.504;2023-12-20T06:56:50;5.45;;;3.30;;
78402;SDS011;67687;43.508;1.504;2023-12-20T06:59:16;6.32;;;3.40;;
78402;SDS011;67687;43.508;1.504;2023-12-20T07:01:45;5.85;;;3.30;;
78402;SDS011;67687;43.508;1.504;2023-12-20T07:04:13;6.03;;;3.10;;
78402;SDS011;67687;43.508;1.504;2023-12-20T07:06:39;5.95;;;3.55;;
78402;SDS011;67687;43.508;1.504;2023-12-20T07:09:06;5.72;;;3.30;;
78402;SDS011;67687;43.508;1.504;2023-12-20T07:11:32;6.47;;;3.90;;
78402;SDS011;67687;43.508;1.504;2023-12-20T07:14:00;5.85;;;3.35;;
78402;SDS011;67687;43.508;1.504;2023-12-20T07:16:27;5.03;;;3.30;;
78402;SDS011;67687;43.508;1.504;2023-12-20T07:18:54;6.30;;;3.70;;
78402;SDS011;67687;43.508;1.504;2023-12-20T07:21:21;6.15;;;3.80;;
78402;SDS011;67687;43.508;1.504;2023-12-20T07:23:47;6.00;;;3.22;;
78402;SDS011;67687;43.508;1.504;2023-12-20T07:26:15;5.28;;;2.78;;
78402;SDS011;67687;43.508;1.504;2023-12-20T07:28:41;5.27;;;3.07;;
78402;SDS011;67687;43.508;1.504;2023-12-20T07:31:09;4.57;;;2.38;;
78402;SDS011;67687;43.508;1.504;2023-12-20T07:33:36;5.72;;;3.55;;
78402;SDS011;67687;43.508;1.504;2023-12-20T07:36:02;4.22;;;2.30;;
78402;SDS011;67687;43.508;1.504;2023-12-20T07:38:29;4.10;;;2.22;;
78402;SDS011;67687;43.508;1.504;2023-12-20T07:40:55;4.20;;;2.50;;
78402;SDS011;67687;43.508;1.504;2023-12-20T07:43:22;4.35;;;2.33;;
78402;SDS011;67687;43.508;1.504;2023-12-20T07:45:48;4.38;;;2.50;;
78402;SDS011;67687;43.508;1.504;2023-12-20T07:48:16;5.28;;;2.50;;
78402;SDS011;67687;43.508;1.504;2023-12-20T07:50:43;4.40;;;2.50;;
78402;SDS011;67687;43.508;1.504;2023-12-20T07:53:09;4.80;;;2.80;;
78402;SDS011;67687;43.508;1.504;2023-12-20T07:55:35;5.05;;;3.10;;
78402;SDS011;67687;43.508;1.504;2023-12-20T07:58:02;4.60;;;2.88;;
78402;SDS011;67687;43.508;1.504;2023-12-20T08:00:30;6.07;;;2.55;;
78402;SDS011;67687;43.508;1.504;2023-12-20T08:02:56;5.32;;;3.08;;
78402;SDS011;67687;43.508;1.504;2023-12-20T08:05:24;4.90;;;2.77;;
78402;SDS011;67687;43.508;1.504;2023-12-20T08:07:51;4.50;;;2.60;;
78402;SDS011;67687;43.508;1.504;2023-12-20T08:10:17;5.57;;;3.38;;
78402;SDS011;67687;43.508;1.504;2023-12-20T08:12:44;9.02;;;4.57;;
78402;SDS011;67687;43.508;1.504;2023-12-20T08:15:11;10.23;;;4.65;;
78402;SDS011;67687;43.508;1.504;2023-12-20T08:17:37;4.40;;;2.70;;
78402;SDS011;67687;43.508;1.504;2023-12-20T08:20:04;4.53;;;2.38;;
78402;SDS011;67687;43.508;1.504;2023-12-20T08:22:32;5.05;;;2.72;;
78402;SDS011;67687;43.508;1.504;2023-12-20T08:24:59;4.43;;;2.20;;
78402;SDS011;67687;43.508;1.504;2023-12-20T08:27:26;4.30;;;2.50;;
78402;SDS011;67687;43.508;1.504;2023-12-20T08:29:53;4.77;;;2.70;;
78402;SDS011;67687;43.508;1.504;2023-12-20T08:32:19;4.07;;;2.47;;
78402;SDS011;67687;43.508;1.504;2023-12-20T08:34:45;6.15;;;2.63;;
78402;SDS011;67687;43.508;1.504;2023-12-20T08:37:12;4.85;;;2.58;;
78402;SDS011;67687;43.508;1.504;2023-12-20T08:39:40;5.20;;;2.60;;
78402;SDS011;67687;43.508;1.504;2023-12-20T08:42:06;5.13;;;2.50;;
78402;SDS011;67687;43.508;1.504;2023-12-20T08:44:33;4.68;;;2.47;;
78402;SDS011;67687;43.508;1.504;2023-12-20T08:46:59;4.20;;;2.40;;
78402;SDS011;67687;43.508;1.504;2023-12-20T08:49:26;5.50;;;3.47;;
78402;SDS011;67687;43.508;1.504;2023-12-20T08:51:53;12.77;;;6.32;;
78402;SDS011;67687;43.508;1.504;2023-12-20T08:54:19;4.33;;;2.90;;
78402;SDS011;67687;43.508;1.504;2023-12-20T08:56:47;4.53;;;2.75;;
78402;SDS011;67687;43.508;1.504;2023-12-20T08:59:14;4.80;;;2.70;;
78402;SDS011;67687;43.508;1.504;2023-12-20T09:01:40;5.00;;;2.90;;
78402;SDS011;67687;43.508;1.504;2023-12-20T09:04:07;5.45;;;3.65;;
78402;SDS011;67687;43.508;1.504;2023-12-20T09:06:33;10.27;;;5.30;;
78402;SDS011;67687;43.508;1.504;2023-12-20T09:09:00;5.40;;;2.90;;
78402;SDS011;67687;43.508;1.504;2023-12-20T09:11:26;5.00;;;2.95;;
78402;SDS011;67687;43.508;1.504;2023-12-20T09:13:54;8.70;;;4.38;;
78402;SDS011;67687;43.508;1.504;2023-12-20T09:16:20;18.83;;;7.93;;
78402;SDS011;67687;43.508;1.504;2023-12-20T09:18:47;8.67;;;4.27;;
78402;SDS011;67687;43.508;1.504;2023-12-20T09:21:13;5.85;;;3.80;;
78402;SDS011;67687;43.508;1.504;2023-12-20T09:23:40;5.90;;;3.45;;
78402;SDS011;67687;43.508;1.504;2023-12-20T09:26:07;6.22;;;3.35;;
78402;SDS011;67687;43.508;1.504;2023-12-20T09:28:33;7.38;;;3.90;;
78402;SDS011;67687;43.508;1.504;2023-12-20T09:31:04;15.00;;;6.70;;
78402;SDS011;67687;43.508;1.504;2023-12-20T09:33:30;7.82;;;3.58;;
78402;SDS011;67687;43.508;1.504;2023-12-20T09:35:57;6.05;;;3.40;;
78402;SDS011;67687;43.508;1.504;2023-12-20T09:38:23;8.13;;;4.22;;
78402;SDS011;67687;43.508;1.504;2023-12-20T09:40:50;5.05;;;2.80;;
78402;SDS011;67687;43.508;1.504;2023-12-20T09:43:18;11.30;;;4.23;;
78402;SDS011;67687;43.508;1.504;2023-12-20T09:45:45;7.72;;;3.83;;
78402;SDS011;67687;43.508;1.504;2023-12-20T09:48:13;5.75;;;3.05;;
78402;SDS011;67687;43.508;1.504;2023-12-20T09:50:42;4.45;;;2.63;;
78402;SDS011;67687;43.508;1.504;2023-12-20T09:53:09;5.13;;;2.70;;
78402;SDS011;67687;43.508;1.504;2023-12-20T09:55:36;5.03;;;2.63;;
78402;SDS011;67687;43.508;1.504;2023-12-20T09:58:03;7.90;;;2.78;;
78402;SDS011;67687;43.508;1.504;2023-12-20T10:00:30;6.13;;;2.42;;
78402;SDS011;67687;43.508;1.504;2023-12-20T10:02:57;7.82;;;4.25;;
78402;SDS011;67687;43.508;1.504;2023-12-20T10:05:27;5.55;;;2.83;;
78402;SDS011;67687;43.508;1.504;2023-12-20T10:07:54;6.60;;;2.20;;
78402;SDS011;67687;43.508;1.504;2023-12-20T10:10:20;7.78;;;2.55;;
78402;SDS011;67687;43.508;1.504;2023-12-20T10:13:00;6.32;;;2.90;;
78402;SDS011;67687;43.508;1.504;2023-12-20T10:15:27;5.55;;;2.30;;
78402;SDS011;67687;43.508;1.504;2023-12-20T10:17:53;5.78;;;2.35;;
78402;SDS011;67687;43.508;1.504;2023-12-20T10:20:20;4.90;;;2.27;;
78402;SDS011;67687;43.508;1.504;2023-12-20T10:22:48;4.55;;;1.90;;
78402;SDS011;67687;43.508;1.504;2023-12-20T10:25:15;4.25;;;1.85;;
78402;SDS011;67687;43.508;1.504;2023-12-20T10:27:42;5.00;;;1.88;;
78402;SDS011;67687;43.508;1.504;2023-12-20T10:30:09;4.75;;;1.70;;
78402;SDS011;67687;43.508;1.504;2023-12-20T10:32:36;4.43;;;2.10;;
78402;SDS011;67687;43.508;1.504;2023-12-20T10:35:02;5.00;;;2.20;;
78402;SDS011;67687;43.508;1.504;2023-12-20T10:37:29;5.78;;;2.20;;
78402;SDS011;67687;43.508;1.504;2023-12-20T10:39:57;5.75;;;2.22;;
78402;SDS011;67687;43.508;1.504;2023-12-20T10:42:26;4.90;;;2.40;;
78402;SDS011;67687;43.508;1.504;2023-12-20T10:44:52;4.53;;;2.30;;
78402;SDS011;67687;43.508;1.504;2023-12-20T10:47:19;5.85;;;1.83;;
78402;SDS011;67687;43.508;1.504;2023-12-20T10:49:46;4.70;;;2.20;;
78402;SDS011;67687;43.508;1.504;2023-12-20T10:52:13;3.75;;;2.10;;
78402;SDS011;67687;43.508;1.504;2023-12-20T10:54:39;3.78;;;1.80;;
78402;SDS011;67687;43.508;1.504;2023-12-20T10:57:07;5.47;;;2.50;;
78402;SDS011;67687;43.508;1.504;2023-12-20T10:59:36;5.60;;;1.88;;
78402;SDS011;67687;43.508;1.504;2023-12-20T11:02:03;3.70;;;1.42;;
78402;SDS011;67687;43.508;1.504;2023-12-20T11:04:31;4.03;;;2.05;;
78402;SDS011;67687;43.508;1.504;2023-12-20T11:07:01;4.28;;;1.70;;
78402;SDS011;67687;43.508;1.504;2023-12-20T11:09:31;5.63;;;2.00;;
78402;SDS011;67687;43.508;1.504;2023-12-20T11:12:02;5.13;;;1.92;;
78402;SDS011;67687;43.508;1.504;2023-12-20T11:14:35;4.68;;;1.80;;
78402;SDS011;67687;43.508;1.504;2023-12-20T11:17:05;4.15;;;1.60;;
78402;SDS011;67687;43.508;1.504;2023-12-20T11:19:32;5.05;;;1.88;;
78402;SDS011;67687;43.508;1.504;2023-12-20T11:21:59;9.90;;;2.00;;
78402;SDS011;67687;43.508;1.504;2023-12-20T11:24:25;3.75;;;1.65;;
78402;SDS011;67687;43.508;1.504;2023-12-20T11:26:55;3.42;;;1.50;;
78402;SDS011;67687;43.508;1.504;2023-12-20T11:29:31;4.25;;;1.40;;
78402;SDS011;67687;43.508;1.504;2023-12-20T11:32:00;3.97;;;1.60;;
78402;SDS011;67687;43.508;1.504;2023-12-20T11:34:28;5.30;;;1.70;;
78402;SDS011;67687;43.508;1.504;2023-12-20T11:36:58;4.60;;;1.30;;
78402;SDS011;67687;43.508;1.504;2023-12-20T11:39:25;5.45;;;1.48;;
78402;SDS011;67687;43.508;1.504;2023-12-20T11:41:52;5.45;;;1.70;;
78402;SDS011;67687;43.508;1.504;2023-12-20T11:44:18;6.07;;;1.80;;
78402;SDS011;67687;43.508;1.504;2023-12-20T11:46:45;6.07;;;1.60;;
78402;SDS011;67687;43.508;1.504;2023-12-20T11:49:14;6.35;;;1.80;;
78402;SDS011;67687;43.508;1.504;2023-12-20T11:51:40;5.25;;;1.48;;
78402;SDS011;67687;43.508;1.504;2023-12-20T11:54:07;6.57;;;1.48;;
78402;SDS011;67687;43.508;1.504;2023-12-20T11:56:34;5.80;;;1.50;;
78402;SDS011;67687;43.508;1.504;2023-12-20T11:59:01;4.03;;;1.50;;
78402;SDS011;67687;43.508;1.504;2023-12-20T12:01:28;3.42;;;1.20;;
78402;SDS011;67687;43.508;1.504;2023-12-20T12:04:02;5.00;;;1.48;;
78402;SDS011;67687;43.508;1.504;2023-12-20T12:06:29;4.13;;;1.50;;
78402;SDS011;67687;43.508;1.504;2023-12-20T12:08:56;5.22;;;1.60;;
78402;SDS011;67687;43.508;1.504;2023-12-20T12:11:22;6.20;;;1.53;;
78402;SDS011;67687;43.508;1.504;2023-12-20T12:13:50;4.57;;;1.42;;
78402;SDS011;67687;43.508;1.504;2023-12-20T12:16:16;6.05;;;1.52;;
78402;SDS011;67687;43.508;1.504;2023-12-20T12:18:43;6.45;;;1.48;;
78402;SDS011;67687;43.508;1.504;2023-12-20T12:21:10;4.63;;;1.48;;
78402;SDS011;67687;43.508;1.504;2023-12-20T12:23:38;6.47;;;1.60;;
78402;SDS011;67687;43.508;1.504;2023-12-20T12:26:04;4.75;;;1.00;;
78402;SDS011;67687;43.508;1.504;2023-12-20T12:28:31;4.82;;;1.05;;
78402;SDS011;67687;43.508;1.504;2023-12-20T12:30:58;6.95;;;1.38;;
78402;SDS011;67687;43.508;1.504;2023-12-20T12:33:25;4.55;;;1.33;;
78402;SDS011;67687;43.508;1.504;2023-12-20T12:35:51;4.70;;;1.30;;
78402;SDS011;67687;43.508;1.504;2023-12-20T12:38:19;7.10;;;1.63;;
78402;SDS011;67687;43.508;1.504;2023-12-20T12:40:47;5.88;;;1.77;;
78402;SDS011;67687;43.508;1.504;2023-12-20T12:43:14;3.58;;;1.00;;
78402;SDS011;67687;43.508;1.504;2023-12-20T12:45:40;3.50;;;1.02;;
78402;SDS011;67687;43.508;1.504;2023-12-20T12:48:07;5.03;;;1.40;;
78402;SDS011;67687;43.508;1.504;2023-12-20T12:50:33;6.18;;;1.40;;
78402;SDS011;67687;43.508;1.504;2023-12-20T12:53:00;13.18;;;4.35;;
78402;SDS011;67687;43.508;1.504;2023-12-20T12:55:27;9.77;;;2.60;;
78402;SDS011;67687;43.508;1.504;2023-12-20T12:57:55;5.00;;;1.38;;
78402;SDS011;67687;43.508;1.504;2023-12-20T13:00:22;9.00;;;2.00;;
78402;SDS011;67687;43.508;1.504;2023-12-20T13:02:49;6.05;;;1.30;;
78402;SDS011;67687;43.508;1.504;2023-12-20T13:05:16;7.00;;;1.80;;
78402;SDS011;67687;43.508;1.504;2023-12-20T13:07:43;8.18;;;1.70;;
78402;SDS011;67687;43.508;1.504;2023-12-20T13:10:10;9.90;;;2.72;;
78402;SDS011;67687;43.508;1.504;2023-12-20T13:12:37;8.67;;;2.17;;
78402;SDS011;67687;43.508;1.504;2023-12-20T13:15:05;7.18;;;1.90;;
78402;SDS011;67687;43.508;1.504;2023-12-20T13:17:32;13.77;;;3.95;;
78402;SDS011;67687;43.508;1.504;2023-12-20T13:19:58;25.25;;;8.15;;
78402;SDS011;67687;43.508;1.504;2023-12-20T13:22:24;6.88;;;1.60;;
78402;SDS011;67687;43.508;1.504;2023-12-20T13:24:51;9.33;;;2.30;;
78402;SDS011;67687;43.508;1.504;2023-12-20T13:27:17;4.97;;;1.30;;
78402;SDS011;67687;43.508;1.504;2023-12-20T13:29:44;5.43;;;1.17;;
78402;SDS011;67687;43.508;1.504;2023-12-20T13:32:12;5.25;;;1.20;;
78402;SDS011;67687;43.508;1.504;2023-12-20T13:34:38;16.00;;;4.93;;
78402;SDS011;67687;43.508;1.504;2023-12-20T13:37:05;7.63;;;1.60;;
78402;SDS011;67687;43.508;1.504;2023-12-20T13:39:31;9.07;;;2.10;;
78402;SDS011;67687;43.508;1.504;2023-12-20T13:41:58;9.80;;;3.13;;
78402;SDS011;67687;43.508;1.504;2023-12-20T13:44:24;7.57;;;2.08;;
78402;SDS011;67687;43.508;1.504;2023-12-20T13:46:51;10.68;;;3.70;;
78402;SDS011;67687;43.508;1.504;2023-12-20T13:49:19;7.83;;;2.70;;
78402;SDS011;67687;43.508;1.504;2023-12-20T13:51:46;7.10;;;2.35;;
78402;SDS011;67687;43.508;1.504;2023-12-20T13:54:12;5.85;;;1.60;;
78402;SDS011;67687;43.508;1.504;2023-12-20T13:56:39;5.97;;;1.80;;
78402;SDS011;67687;43.508;1.504;2023-12-20T13:59:04;4.77;;;1.50;;
78402;SDS011;67687;43.508;1.504;2023-12-20T14:01:31;5.22;;;1.55;;
78402;SDS011;67687;43.508;1.504;2023-12-20T14:03:57;7.80;;;1.55;;
78402;SDS011;67687;43.508;1.504;2023-12-20T14:06:28;6.00;;;1.90;;
78402;SDS011;67687;43.508;1.504;2023-12-20T14:08:54;7.07;;;2.13;;
78402;SDS011;67687;43.508;1.504;2023-12-20T14:11:21;5.60;;;1.88;;
78402;SDS011;67687;43.508;1.504;2023-12-20T14:13:47;7.65;;;1.98;;
78402;SDS011;67687;43.508;1.504;2023-12-20T14:16:14;7.78;;;1.95;;
78402;SDS011;67687;43.508;1.504;2023-12-20T14:18:41;7.00;;;1.67;;
78402;SDS011;67687;43.508;1.504;2023-12-20T14:21:08;5.43;;;1.42;;
78402;SDS011;67687;43.508;1.504;2023-12-20T14:23:36;7.38;;;1.55;;
78402;SDS011;67687;43.508;1.504;2023-12-20T14:26:03;4.80;;;1.73;;
78402;SDS011;67687;43.508;1.504;2023-12-20T14:28:29;6.65;;;1.50;;
78402;SDS011;67687;43.508;1.504;2023-12-20T14:30:56;4.67;;;1.13;;
78402;SDS011;67687;43.508;1.504;2023-12-20T14:33:22;7.10;;;1.77;;
78402;SDS011;67687;43.508;1.504;2023-12-20T14:35:49;5.88;;;1.55;;
78402;SDS011;67687;43.508;1.504;2023-12-20T14:38:15;6.53;;;1.50;;